Time;durP1;ratioP1;P1;durP2;ratioP2;P2;SDS_P1;SDS_P2;PMS_P1;PMS_P2;Temp;Humidity;BMP_temperature;BMP_pressure;BME280_temperature;BME280_humidity;BME280_pressure;Samples;Min_cycle;Max_cycle;Signal;HPM_P1;HPM_P2
2022/09/27 00:00:22;;;;;;;8.88;1.58;;;10.20;99.90;;;;;;4991645;28;20046;-71
2022/09/27 00:02:48;;;;;;;6.20;1.73;;;10.20;99.90;;;;;;4976370;28;20054;-70
2022/09/27 00:05:14;;;;;;;6.18;1.30;;;10.20;99.90;;;;;;4974137;28;20133;-69
2022/09/27 00:07:40;;;;;;;6.35;1.58;;;10.10;99.90;;;;;;4975599;28;20380;-70
2022/09/27 00:10:07;;;;;;;5.15;1.50;;;10.10;99.90;;;;;;4990951;28;20042;-69
2022/09/27 00:12:33;;;;;;;11.25;1.83;;;10.10;99.90;;;;;;4978526;28;20125;-69
2022/09/27 00:14:59;;;;;;;7.95;1.83;;;10.10;99.90;;;;;;4978826;28;20145;-70
2022/09/27 00:17:26;;;;;;;8.05;1.63;;;10.00;99.90;;;;;;4995908;28;20038;-71
2022/09/27 00:19:51;;;;;;;5.78;1.55;;;10.00;99.90;;;;;;4985940;28;20057;-68
2022/09/27 00:22:17;;;;;;;5.95;2.00;;;9.90;99.90;;;;;;4959195;28;20527;-69
2022/09/27 00:24:42;;;;;;;5.97;1.23;;;10.00;99.90;;;;;;4959360;28;20047;-70
2022/09/27 00:27:08;;;;;;;8.07;1.58;;;9.90;99.90;;;;;;4976164;28;20116;-70
2022/09/27 00:29:34;;;;;;;6.70;1.42;;;9.90;99.90;;;;;;4976244;28;20039;-69
2022/09/27 00:31:59;;;;;;;6.53;1.75;;;9.90;99.90;;;;;;4976144;28;20047;-72
2022/09/27 00:34:25;;;;;;;9.27;1.50;;;10.00;99.90;;;;;;4975642;28;20045;-69
2022/09/27 00:36:52;;;;;;;6.88;1.50;;;9.90;99.90;;;;;;4976254;28;20042;-69
2022/09/27 00:39:18;;;;;;;6.60;1.40;;;10.00;99.90;;;;;;4976510;28;20057;-69
2022/09/27 00:41:44;;;;;;;9.70;2.40;;;10.00;99.90;;;;;;4976184;28;20057;-70
2022/09/27 00:44:25;;;;;;;11.57;2.00;;;10.00;99.90;;;;;;4976253;28;20379;-69
2022/09/27 00:47:08;;;;;;;4.03;1.23;;;9.90;99.90;;;;;;4975806;28;20447;-70
2022/09/27 00:49:52;;;;;;;10.27;1.58;;;9.90;99.90;;;;;;4986060;28;20043;-69
2022/09/27 00:52:38;;;;;;;5.88;1.40;;;9.90;99.90;;;;;;4995424;28;20055;-70
2022/09/27 00:55:12;;;;;;;4.53;1.25;;;9.80;99.90;;;;;;4994911;28;20112;-70
2022/09/27 00:57:38;;;;;;;4.93;1.40;;;9.80;99.90;;;;;;4995278;28;20052;-69
2022/09/27 01:00:08;;;;;;;6.38;1.20;;;9.80;99.90;;;;;;4978624;28;20055;-72
2022/09/27 01:02:37;;;;;;;5.43;1.30;;;9.90;99.90;;;;;;4995339;28;20046;-71
2022/09/27 01:05:06;;;;;;;6.50;1.45;;;9.90;99.90;;;;;;4994584;28;20038;-70
2022/09/27 01:07:32;;;;;;;6.28;1.05;;;9.80;99.90;;;;;;4995373;28;20081;-69
2022/09/27 01:09:58;;;;;;;6.38;1.17;;;10.00;99.90;;;;;;4995013;28;20506;-68
2022/09/27 01:12:26;;;;;;;5.57;1.38;;;9.80;99.90;;;;;;4994982;28;20525;-70
2022/09/27 01:15:16;;;;;;;9.10;1.60;;;9.80;99.90;;;;;;4994947;28;20094;-70
2022/09/27 01:18:15;;;;;;;5.53;1.90;;;9.80;99.90;;;;;;4995136;28;20351;-70
2022/09/27 01:21:22;;;;;;;8.40;1.38;;;9.70;99.90;;;;;;4971269;28;20069;-69
2022/09/27 01:24:09;;;;;;;7.07;1.67;;;9.70;99.90;;;;;;4949725;29;20047;-72
2022/09/27 01:27:05;;;;;;;6.65;1.38;;;9.70;99.90;;;;;;4956162;29;20054;-68
2022/09/27 01:30:01;;;;;;;6.43;1.48;;;9.60;99.90;;;;;;4956120;29;20043;-70
2022/09/27 01:32:38;;;;;;;9.18;1.42;;;9.60;99.90;;;;;;4956518;28;20089;-72
2022/09/27 01:35:08;;;;;;;6.50;1.20;;;9.70;99.90;;;;;;4956151;29;20047;-70
2022/09/27 01:37:55;;;;;;;7.15;1.50;;;9.60;99.90;;;;;;4956751;29;20372;-70
2022/09/27 01:40:52;;;;;;;12.68;1.60;;;9.60;99.90;;;;;;4957892;28;20066;-70
2022/09/27 01:43:28;;;;;;;7.25;1.55;;;9.60;99.90;;;;;;4959766;29;20050;-70
2022/09/27 01:46:09;;;;;;;9.43;1.90;;;9.60;99.90;;;;;;4959486;29;20069;-69
2022/09/27 01:48:41;;;;;;;9.65;1.73;;;9.70;99.90;;;;;;4970444;28;20062;-71
2022/09/27 01:51:13;;;;;;;5.07;1.38;;;9.80;99.90;;;;;;4961749;28;20042;-70
2022/09/27 01:53:42;;;;;;;9.18;1.80;;;9.80;99.90;;;;;;4962671;28;20054;-70
2022/09/27 01:56:25;;;;;;;7.78;1.50;;;9.80;99.90;;;;;;4961522;28;20087;-69
2022/09/27 01:59:06;;;;;;;9.65;1.48;;;9.80;99.90;;;;;;4978725;28;20113;-70
2022/09/27 02:01:34;;;;;;;6.18;2.00;;;9.80;99.90;;;;;;4978723;28;20070;-69
2022/09/27 02:04:01;;;;;;;4.40;1.23;;;9.80;99.90;;;;;;4961442;28;20508;-71
2022/09/27 02:06:33;;;;;;;7.80;1.38;;;9.90;99.90;;;;;;4978391;28;20035;-71
2022/09/27 02:09:08;;;;;;;6.32;1.70;;;9.90;99.90;;;;;;4984117;28;20336;-71
2022/09/27 02:11:37;;;;;;;4.43;1.40;;;9.90;99.90;;;;;;4997494;28;20134;-70
2022/09/27 02:14:12;;;;;;;5.03;1.10;;;9.90;99.90;;;;;;4997956;28;20455;-69
2022/09/27 02:16:50;;;;;;;6.78;1.65;;;9.90;99.90;;;;;;4997754;28;20069;-70
2022/09/27 02:19:40;;;;;;;6.25;1.40;;;9.90;99.90;;;;;;4997677;28;20050;-70
2022/09/27 02:22:24;;;;;;;3.45;1.10;;;9.90;99.90;;;;;;4980611;28;20446;-69
2022/09/27 02:24:53;;;;;;;6.38;1.38;;;9.80;99.90;;;;;;4980104;28;20072;-69
2022/09/27 02:27:38;;;;;;;7.38;1.20;;;9.80;99.90;;;;;;4997221;28;20470;-71
2022/09/27 02:30:11;;;;;;;4.15;1.25;;;9.80;99.90;;;;;;4997468;28;20140;-71
2022/09/27 02:32:37;;;;;;;4.07;1.30;;;9.80;99.90;;;;;;4997714;28;20054;-71
2022/09/27 02:35:19;;;;;;;8.25;1.58;;;9.90;99.90;;;;;;4997613;28;20058;-70
2022/09/27 02:37:46;;;;;;;3.30;1.00;;;9.80;99.90;;;;;;4993365;28;20166;-70
2022/09/27 02:40:12;;;;;;;5.18;1.08;;;9.80;99.90;;;;;;4978197;28;20086;-70
2022/09/27 02:42:41;;;;;;;3.38;1.00;;;9.80;99.90;;;;;;4978216;28;20047;-70
2022/09/27 02:45:08;;;;;;;5.22;1.10;;;9.70;99.90;;;;;;4978227;28;20047;-69
2022/09/27 02:48:02;;;;;;;6.00;1.20;;;9.70;99.90;;;;;;4960859;28;20043;-71
2022/09/27 02:50:28;;;;;;;3.80;1.10;;;9.70;99.90;;;;;;4977350;28;20055;-72
2022/09/27 02:53:41;;;;;;;5.07;1.15;;;9.70;99.90;;;;;;4976739;28;20475;-70
2022/09/27 02:56:39;;;;;;;5.35;1.30;;;9.70;99.90;;;;;;4898903;29;20156;-69
2022/09/27 02:59:18;;;;;;;6.32;1.27;;;9.80;99.90;;;;;;4944573;28;20043;-70
2022/09/27 03:02:09;;;;;;;5.47;1.25;;;9.70;99.90;;;;;;4950498;29;20062;-70
2022/09/27 03:04:43;;;;;;;5.40;1.55;;;9.70;99.90;;;;;;4976923;28;20061;-71
2022/09/27 03:07:11;;;;;;;6.55;1.40;;;9.80;99.90;;;;;;4977043;28;20117;-69
2022/09/27 03:09:46;;;;;;;10.10;1.40;;;9.70;99.90;;;;;;4996484;28;20414;-70
2022/09/27 03:12:13;;;;;;;5.35;1.50;;;9.80;99.90;;;;;;4996989;28;20075;-71
2022/09/27 03:14:39;;;;;;;8.20;1.50;;;9.70;99.90;;;;;;4996886;28;20351;-70
2022/09/27 03:17:05;;;;;;;4.80;1.25;;;9.80;99.90;;;;;;4996338;28;20043;-71
2022/09/27 03:19:30;;;;;;;5.10;1.30;;;9.60;99.90;;;;;;4996942;28;20336;-72
2022/09/27 03:21:56;;;;;;;9.35;1.30;;;9.90;99.90;;;;;;4993855;28;20046;-73
2022/09/27 03:24:22;;;;;;;4.53;1.23;;;9.70;99.90;;;;;;4993837;28;20136;-70
2022/09/27 03:26:47;;;;;;;3.05;1.00;;;9.60;99.90;;;;;;4996684;28;20038;-69
2022/09/27 03:29:13;;;;;;;6.80;1.40;;;9.60;99.90;;;;;;4995983;28;20467;-71
2022/09/27 03:31:39;;;;;;;6.90;1.17;;;9.50;99.90;;;;;;4995891;28;20081;-69
2022/09/27 03:34:04;;;;;;;4.43;1.38;;;9.50;99.90;;;;;;4996699;28;20088;-69
2022/09/27 03:36:30;;;;;;;4.00;0.82;;;9.50;99.90;;;;;;4995920;28;20049;-69
2022/09/27 03:38:56;;;;;;;5.95;1.20;;;9.50;99.90;;;;;;4995617;28;20051;-68
2022/09/27 03:41:21;;;;;;;5.32;1.33;;;9.40;99.90;;;;;;4996213;28;20447;-72
2022/09/27 03:43:47;;;;;;;6.38;1.25;;;9.40;99.90;;;;;;4996434;28;20125;-70
2022/09/27 03:46:12;;;;;;;6.43;1.65;;;9.40;99.90;;;;;;4996067;28;20042;-71
2022/09/27 03:48:38;;;;;;;4.97;1.30;;;9.40;99.90;;;;;;4979849;28;20073;-70
2022/09/27 03:51:04;;;;;;;2.90;1.10;;;9.40;99.90;;;;;;4996075;28;20061;-71
2022/09/27 03:53:30;;;;;;;4.22;1.25;;;9.40;99.90;;;;;;4975459;28;20089;-73
2022/09/27 03:55:56;;;;;;;5.78;1.33;;;9.40;99.90;;;;;;4993154;28;20042;-69
2022/09/27 03:58:25;;;;;;;4.35;1.02;;;9.30;99.90;;;;;;4993273;28;20038;-68
2022/09/27 04:00:51;;;;;;;7.50;1.25;;;9.30;99.90;;;;;;4995839;28;20042;-69
2022/09/27 04:03:18;;;;;;;4.72;1.70;;;9.40;99.90;;;;;;4995516;28;20049;-69
2022/09/27 04:05:44;;;;;;;8.07;1.15;;;9.30;99.90;;;;;;4957846;28;20116;-70
2022/09/27 04:08:10;;;;;;;4.57;1.20;;;9.40;99.90;;;;;;4995246;28;20071;-70
2022/09/27 04:10:36;;;;;;;7.63;1.20;;;9.30;99.90;;;;;;4995868;28;20050;-70
2022/09/27 04:13:02;;;;;;;7.80;1.33;;;9.40;99.90;;;;;;4975505;28;20380;-69
2022/09/27 04:15:28;;;;;;;5.28;1.00;;;9.40;99.90;;;;;;4993259;28;20038;-69
2022/09/27 04:17:54;;;;;;;5.82;1.30;;;9.40;99.90;;;;;;4996027;28;20038;-69
2022/09/27 04:20:19;;;;;;;8.38;1.58;;;9.40;99.90;;;;;;4995122;28;20427;-69
2022/09/27 04:22:45;;;;;;;7.93;1.65;;;9.40;99.90;;;;;;4995706;28;20097;-70
2022/09/27 04:25:11;;;;;;;6.13;1.38;;;9.40;99.90;;;;;;4979019;28;20046;-70
2022/09/27 04:27:44;;;;;;;7.97;1.80;;;9.60;99.90;;;;;;4995482;28;20530;-71
2022/09/27 04:30:10;;;;;;;5.15;1.30;;;9.60;99.90;;;;;;4987820;28;20066;-69
2022/09/27 04:32:43;;;;;;;4.63;1.20;;;9.40;99.90;;;;;;4967079;28;20047;-70
2022/09/27 04:37:55;;;;;;;3.88;1.00;;;9.40;99.90;;;;;;4976066;28;20133;-70
2022/09/27 04:40:21;;;;;;;6.35;1.30;;;9.40;99.90;;;;;;4975944;28;20103;-71
2022/09/27 04:42:48;;;;;;;6.28;1.20;;;9.60;99.90;;;;;;4975925;28;20133;-69
2022/09/27 04:45:13;;;;;;;3.75;1.15;;;9.60;99.90;;;;;;4963975;28;20463;-69
2022/09/27 04:47:43;;;;;;;4.53;1.55;;;9.40;99.90;;;;;;4978379;28;20129;-70
2022/09/27 04:50:09;;;;;;;6.00;1.17;;;9.40;99.90;;;;;;4995291;28;20053;-70
2022/09/27 04:52:34;;;;;;;6.32;1.17;;;9.40;99.90;;;;;;4995506;28;20410;-69
2022/09/27 04:55:00;;;;;;;3.25;1.05;;;9.40;99.90;;;;;;4978110;28;20046;-67
2022/09/27 04:57:25;;;;;;;6.03;1.27;;;9.40;99.90;;;;;;4995274;28;20061;-70
2022/09/27 04:59:51;;;;;;;7.40;1.08;;;9.40;99.90;;;;;;4978083;28;20477;-70
2022/09/27 05:02:17;;;;;;;4.85;1.20;;;9.40;99.90;;;;;;4995058;28;20046;-70
2022/09/27 05:04:43;;;;;;;6.50;1.17;;;9.40;99.90;;;;;;4995569;28;20046;-71
2022/09/27 05:07:08;;;;;;;7.60;1.52;;;9.30;99.90;;;;;;4978448;28;20061;-70
2022/09/27 05:09:34;;;;;;;6.85;1.25;;;9.50;99.90;;;;;;4995285;28;20053;-68
2022/09/27 05:12:00;;;;;;;3.45;1.02;;;9.40;99.90;;;;;;4995545;28;20054;-70
2022/09/27 05:14:25;;;;;;;5.00;1.45;;;9.40;99.90;;;;;;4992628;28;20163;-69
2022/09/27 05:16:52;;;;;;;6.13;1.10;;;9.40;99.90;;;;;;4979667;28;20054;-72
2022/09/27 05:19:18;;;;;;;6.63;1.25;;;9.60;99.90;;;;;;4978524;28;20047;-71
2022/09/27 05:21:43;;;;;;;4.30;0.95;;;9.40;99.90;;;;;;4993209;28;20050;-72
2022/09/27 05:24:09;;;;;;;4.47;1.23;;;9.50;99.90;;;;;;4998506;28;20049;-71
2022/09/27 05:26:36;;;;;;;5.40;1.15;;;9.30;99.90;;;;;;4998816;28;20382;-71
2022/09/27 05:29:02;;;;;;;2.90;1.42;;;9.30;99.90;;;;;;4998573;28;20113;-71
2022/09/27 05:31:28;;;;;;;6.28;1.27;;;9.30;99.90;;;;;;4998444;28;20134;-71
2022/09/27 05:33:54;;;;;;;2.90;1.00;;;9.30;99.90;;;;;;4998691;28;20125;-69
2022/09/27 05:36:20;;;;;;;4.00;1.05;;;9.30;99.90;;;;;;4981602;28;20050;-70
2022/09/27 05:38:46;;;;;;;4.43;1.00;;;9.50;99.90;;;;;;4998449;28;20070;-70
2022/09/27 05:41:12;;;;;;;5.68;1.55;;;9.30;99.90;;;;;;4980670;28;20053;-69
2022/09/27 05:43:37;;;;;;;2.88;1.00;;;9.30;99.90;;;;;;4998797;28;20049;-71
2022/09/27 05:46:04;;;;;;;3.35;1.40;;;9.30;99.90;;;;;;4998839;28;20049;-71
2022/09/27 05:48:30;;;;;;;3.58;1.00;;;9.30;99.90;;;;;;4998584;28;20069;-71
2022/09/27 05:50:56;;;;;;;5.07;1.35;;;9.40;99.90;;;;;;4998146;28;20046;-72
2022/09/27 05:53:22;;;;;;;4.78;1.27;;;9.40;99.90;;;;;;4998468;28;20045;-70
2022/09/27 05:55:48;;;;;;;4.57;1.60;;;9.30;99.90;;;;;;4998049;28;20108;-69
2022/09/27 05:58:15;;;;;;;4.32;1.00;;;9.40;99.90;;;;;;4998184;28;20105;-69
2022/09/27 06:00:42;;;;;;;4.30;1.27;;;9.30;99.90;;;;;;4998150;28;20046;-71
2022/09/27 06:03:10;;;;;;;3.88;1.60;;;9.30;99.90;;;;;;4998044;28;20431;-73
2022/09/27 06:05:38;;;;;;;5.80;1.65;;;9.40;99.90;;;;;;4980643;28;20058;-70
2022/09/27 06:08:08;;;;;;;6.25;1.30;;;9.40;99.90;;;;;;4998161;28;20061;-71
2022/09/27 06:10:34;;;;;;;4.60;1.50;;;9.70;99.90;;;;;;4997969;28;20042;-71
2022/09/27 06:13:01;;;;;;;4.82;1.25;;;9.40;99.90;;;;;;4980706;28;20490;-69
2022/09/27 06:15:28;;;;;;;6.18;1.30;;;9.50;99.90;;;;;;4997856;28;20038;-71
2022/09/27 06:17:54;;;;;;;4.57;1.23;;;9.50;99.90;;;;;;4997591;28;20046;-73
2022/09/27 06:20:20;;;;;;;4.55;1.02;;;9.50;99.90;;;;;;4997695;28;20069;-70
2022/09/27 06:22:46;;;;;;;8.57;1.20;;;9.50;99.90;;;;;;4997853;28;20046;-69
2022/09/27 06:25:12;;;;;;;3.90;1.70;;;9.60;99.90;;;;;;4980557;28;20050;-72
2022/09/27 06:27:38;;;;;;;7.63;1.80;;;9.60;99.90;;;;;;4997557;28;20058;-69
2022/09/27 06:30:05;;;;;;;4.10;1.63;;;9.60;99.90;;;;;;4997841;28;20042;-71
2022/09/27 06:32:31;;;;;;;6.88;1.63;;;9.70;99.90;;;;;;4995138;28;20388;-72
2022/09/27 06:34:57;;;;;;;7.78;1.50;;;9.70;99.90;;;;;;4992089;28;20046;-71
2022/09/27 06:37:26;;;;;;;5.13;1.58;;;9.70;99.90;;;;;;4980244;28;20521;-70
2022/09/27 06:39:52;;;;;;;4.57;1.50;;;9.80;99.90;;;;;;4997538;28;20490;-72
2022/09/27 06:42:19;;;;;;;4.80;1.35;;;9.80;99.90;;;;;;4980313;28;20061;-71
2022/09/27 06:44:48;;;;;;;4.85;1.40;;;9.80;99.90;;;;;;4979934;28;20053;-70
2022/09/27 06:47:15;;;;;;;5.47;1.63;;;9.90;99.90;;;;;;4997203;28;20061;-71
2022/09/27 06:49:41;;;;;;;6.32;1.33;;;9.80;99.90;;;;;;4997012;28;20088;-70
2022/09/27 06:52:07;;;;;;;6.85;1.67;;;10.00;99.90;;;;;;4980097;28;20129;-70
2022/09/27 06:54:32;;;;;;;5.57;1.40;;;9.90;99.90;;;;;;4997358;28;20046;-71
2022/09/27 06:56:58;;;;;;;5.47;1.20;;;9.90;99.90;;;;;;4997025;28;20383;-71
2022/09/27 07:02:08;;;;;;;5.45;1.35;;;10.00;99.90;;;;;;4996681;28;20174;-70
2022/09/27 07:04:33;;;;;;;7.43;1.52;;;10.00;99.90;;;;;;4997716;28;20108;-70
2022/09/27 07:06:59;;;;;;;4.47;1.23;;;10.00;99.90;;;;;;4979713;28;20065;-70
2022/09/27 07:09:24;;;;;;;5.20;1.55;;;10.10;99.90;;;;;;4996871;28;20050;-70
2022/09/27 07:11:50;;;;;;;5.85;1.52;;;10.10;99.90;;;;;;4996861;28;20116;-71
2022/09/27 07:14:16;;;;;;;9.73;4.18;;;10.30;99.90;;;;;;4996950;28;20448;-69
2022/09/27 07:16:42;;;;;;;8.07;2.92;;;10.20;99.90;;;;;;4996606;28;20042;-72
2022/09/27 07:19:10;;;;;;;8.35;3.08;;;10.20;99.90;;;;;;4996658;28;20190;-72
2022/09/27 07:21:36;;;;;;;6.82;2.30;;;10.20;99.90;;;;;;4996818;28;20412;-71
2022/09/27 07:24:01;;;;;;;7.35;2.50;;;10.30;99.90;;;;;;4996502;28;20188;-72
2022/09/27 07:26:27;;;;;;;6.25;1.70;;;10.30;99.90;;;;;;4979540;28;20112;-70
2022/09/27 07:28:53;;;;;;;6.63;1.70;;;10.40;99.90;;;;;;4996747;28;20050;-71
2022/09/27 07:31:19;;;;;;;4.85;1.65;;;10.30;99.90;;;;;;4995777;28;20047;-71
2022/09/27 07:33:44;;;;;;;5.07;2.00;;;10.50;99.90;;;;;;4996350;28;20357;-70
2022/09/27 07:36:11;;;;;;;6.40;1.90;;;10.40;99.90;;;;;;4996181;28;20439;-71
2022/09/27 07:38:36;;;;;;;5.20;1.75;;;10.50;99.90;;;;;;4996242;28;20357;-70
2022/09/27 07:41:12;;;;;;;4.07;1.23;;;10.50;99.90;;;;;;4996255;28;20052;-69
2022/09/27 07:43:38;;;;;;;6.30;1.95;;;10.60;99.90;;;;;;4996452;28;20061;-69
2022/09/27 07:46:03;;;;;;;5.43;1.90;;;10.70;99.90;;;;;;4996388;28;20038;-71
2022/09/27 07:48:29;;;;;;;4.85;1.50;;;10.70;99.90;;;;;;4979264;28;20112;-69
2022/09/27 07:50:55;;;;;;;7.38;1.75;;;10.80;99.90;;;;;;4996084;28;20329;-71
2022/09/27 07:53:20;;;;;;;3.53;1.30;;;10.90;99.90;;;;;;4995746;28;20129;-70
2022/09/27 07:55:51;;;;;;;4.22;1.65;;;11.10;99.90;;;;;;4996337;28;20129;-71
2022/09/27 07:58:18;;;;;;;6.22;1.40;;;11.40;99.90;;;;;;4996008;28;20042;-71
2022/09/27 08:00:44;;;;;;;5.25;1.42;;;11.50;99.90;;;;;;4995834;28;20125;-70
2022/09/27 08:03:14;;;;;;;5.88;1.48;;;11.70;99.90;;;;;;4995671;28;20412;-72
2022/09/27 08:05:39;;;;;;;4.85;1.48;;;11.70;99.90;;;;;;4995881;28;20050;-71
2022/09/27 08:08:05;;;;;;;5.82;1.73;;;11.90;99.90;;;;;;4996014;28;20361;-72
2022/09/27 08:10:32;;;;;;;3.20;1.33;;;11.90;99.90;;;;;;4978469;28;20046;-70
2022/09/27 08:13:01;;;;;;;4.57;1.40;;;12.00;99.90;;;;;;4995982;28;20442;-70
2022/09/27 08:15:27;;;;;;;6.72;2.00;;;12.10;99.90;;;;;;4995699;28;20526;-70
2022/09/27 08:17:54;;;;;;;4.15;1.80;;;12.00;99.90;;;;;;4978703;28;20046;-71
2022/09/27 08:20:19;;;;;;;7.15;2.45;;;11.90;99.90;;;;;;4995894;28;20113;-72
2022/09/27 08:22:45;;;;;;;6.63;2.92;;;11.80;99.90;;;;;;4995806;28;20486;-71
2022/09/27 08:25:11;;;;;;;5.05;1.90;;;11.70;99.90;;;;;;4995530;28;20042;-71
2022/09/27 08:27:36;;;;;;;6.22;2.88;;;11.60;99.90;;;;;;4995824;28;20038;-70
2022/09/27 08:30:03;;;;;;;8.27;3.10;;;11.50;99.90;;;;;;4995303;28;20451;-70
2022/09/27 08:32:29;;;;;;;6.30;1.92;;;11.50;99.90;;;;;;4992261;28;20049;-70
2022/09/27 08:34:55;;;;;;;4.20;2.15;;;11.50;99.90;;;;;;4995300;28;20459;-72
2022/09/27 08:37:21;;;;;;;3.47;1.60;;;11.50;99.90;;;;;;4995512;28;20050;-71
2022/09/27 08:39:46;;;;;;;4.18;2.00;;;11.60;99.90;;;;;;4995425;28;20053;-69
2022/09/27 08:42:30;;;;;;;2.08;0.90;;;11.70;99.90;;;;;;4995490;28;20042;-70
2022/09/27 08:45:21;;;;;;;3.50;0.90;;;11.80;99.90;;;;;;4995416;28;20073;-70
2022/09/27 08:47:51;;;;;;;4.50;1.10;;;12.10;99.90;;;;;;4995180;28;20470;-71
2022/09/27 08:50:23;;;;;;;3.33;1.02;;;12.20;99.90;;;;;;4999022;28;20057;-70
2022/09/27 08:53:00;;;;;;;2.45;0.98;;;12.40;99.90;;;;;;4999347;28;20069;-72
2022/09/27 08:55:42;;;;;;;2.63;1.00;;;12.60;99.90;;;;;;4982056;28;20121;-70
2022/09/27 08:58:29;;;;;;;3.25;1.13;;;12.70;99.90;;;;;;4999299;28;20213;-71
2022/09/27 09:01:02;;;;;;;3.03;0.90;;;12.90;99.90;;;;;;4999104;28;20038;-69
2022/09/27 09:03:36;;;;;;;1.80;0.82;;;13.10;99.90;;;;;;4999278;28;20363;-71
2022/09/27 09:06:25;;;;;;;1.13;0.60;;;13.30;99.90;;;;;;4999673;28;20054;-71
2022/09/27 09:09:04;;;;;;;3.65;1.23;;;13.50;99.90;;;;;;4986142;28;20121;-72
2022/09/27 09:14:47;;;;;;;5.90;0.98;;;13.60;99.90;;;;;;4998975;28;20371;-70
2022/09/27 09:17:33;;;;;;;2.08;0.82;;;13.60;99.90;;;;;;4998723;28;20046;-71
2022/09/27 09:20:11;;;;;;;2.72;0.90;;;13.80;99.90;;;;;;4998514;28;20057;-70
2022/09/27 09:23:05;;;;;;;3.83;1.20;;;13.80;99.90;;;;;;4998766;28;20455;-71
2022/09/27 09:26:03;;;;;;;2.38;0.90;;;13.80;99.90;;;;;;4998734;28;20089;-70
2022/09/27 09:28:31;;;;;;;3.22;1.38;;;13.90;99.90;;;;;;4964334;28;20062;-70
2022/09/27 09:31:31;;;;;;;1.73;0.70;;;14.00;99.90;;;;;;4998254;28;20052;-69
2022/09/27 09:34:06;;;;;;;3.60;1.05;;;14.00;99.90;;;;;;4998716;28;20105;-71
2022/09/27 09:37:10;;;;;;;2.42;1.05;;;14.10;99.90;;;;;;4981534;28;20363;-72
2022/09/27 09:39:47;;;;;;;3.30;1.10;;;14.10;99.90;;;;;;4997631;28;20058;-69
2022/09/27 09:42:23;;;;;;;3.50;1.23;;;14.30;99.90;;;;;;4998450;28;20100;-71
2022/09/27 09:45:04;;;;;;;2.85;0.90;;;14.30;99.90;;;;;;4998340;28;20073;-70
2022/09/27 09:47:53;;;;;;;5.18;1.17;;;14.40;99.90;;;;;;4998225;28;20043;-70
2022/09/27 09:50:29;;;;;;;3.67;0.98;;;14.40;99.90;;;;;;4998414;28;20371;-70
2022/09/27 09:53:14;;;;;;;4.32;1.00;;;14.40;99.90;;;;;;4998250;28;20042;-70
2022/09/27 09:55:44;;;;;;;4.30;1.25;;;14.40;99.90;;;;;;4998083;28;20047;-70
2022/09/27 09:58:21;;;;;;;4.50;1.05;;;14.40;99.90;;;;;;4998069;28;20054;-69
2022/09/27 10:00:54;;;;;;;5.55;1.63;;;14.30;99.90;;;;;;4997273;28;20451;-70
2022/09/27 10:03:21;;;;;;;6.25;1.10;;;14.40;99.90;;;;;;4997934;28;20046;-71
2022/09/27 10:05:47;;;;;;;5.88;1.52;;;14.40;99.90;;;;;;4997939;28;20046;-70
2022/09/27 10:08:23;;;;;;;3.22;0.80;;;14.50;99.90;;;;;;4997838;28;20056;-72
2022/09/27 10:10:48;;;;;;;2.78;1.02;;;14.00;99.90;;;;;;4997870;28;20060;-72
2022/09/27 10:13:17;;;;;;;1.80;0.73;;;13.40;99.90;;;;;;4997971;28;20050;-72
2022/09/27 10:15:47;;;;;;;2.65;0.80;;;12.80;99.90;;;;;;4997688;28;20046;-71
2022/09/27 10:18:17;;;;;;;2.90;0.80;;;12.20;99.90;;;;;;4998186;28;20046;-71
2022/09/27 10:20:56;;;;;;;2.80;0.90;;;12.00;99.90;;;;;;4997571;28;20065;-72
2022/09/27 10:23:24;;;;;;;5.72;1.02;;;11.80;99.90;;;;;;4984617;28;20061;-71
2022/09/27 10:26:01;;;;;;;3.70;0.90;;;11.70;99.90;;;;;;4978177;28;20454;-70
2022/09/27 10:28:37;;;;;;;2.50;0.80;;;11.60;99.90;;;;;;4977414;28;20062;-70
2022/09/27 10:31:21;;;;;;;3.13;0.90;;;11.60;99.90;;;;;;4978097;28;20049;-72
2022/09/27 10:33:55;;;;;;;4.85;0.98;;;11.60;99.90;;;;;;4978127;28;20039;-71
2022/09/27 10:36:29;;;;;;;2.38;0.70;;;11.50;99.90;;;;;;4977397;28;20059;-71
2022/09/27 10:39:03;;;;;;;2.58;0.80;;;11.50;99.90;;;;;;4980015;28;20054;-70
2022/09/27 10:41:37;;;;;;;12.50;1.52;;;11.50;99.90;;;;;;4997635;28;20340;-70
2022/09/27 10:44:31;;;;;;;1.52;0.90;;;11.60;99.90;;;;;;4997665;28;20119;-71
2022/09/27 10:47:08;;;;;;;3.08;1.10;;;11.70;99.90;;;;;;4980467;28;20088;-71
2022/09/27 10:49:37;;;;;;;4.93;1.20;;;11.90;99.90;;;;;;4997369;28;20144;-70
2022/09/27 10:52:23;;;;;;;2.03;0.93;;;12.20;99.90;;;;;;4996547;28;20053;-71
2022/09/27 10:54:54;;;;;;;2.38;0.80;;;12.50;99.90;;;;;;4997005;28;20141;-70
2022/09/27 10:57:23;;;;;;;1.40;0.80;;;12.70;99.90;;;;;;4997260;28;20487;-71
2022/09/27 10:59:54;;;;;;;3.83;0.93;;;13.00;99.90;;;;;;4979887;28;20142;-70
2022/09/27 11:02:32;;;;;;;3.20;0.90;;;13.20;99.90;;;;;;4997149;28;20088;-70
2022/09/27 11:05:05;;;;;;;2.78;0.90;;;13.40;99.90;;;;;;4979890;28;20344;-72
2022/09/27 11:07:31;;;;;;;3.67;1.00;;;13.70;99.90;;;;;;4967080;28;20051;-69
2022/09/27 11:10:04;;;;;;;2.60;0.90;;;13.90;99.90;;;;;;4960698;28;20122;-72
2022/09/27 11:12:30;;;;;;;3.17;0.75;;;14.00;99.90;;;;;;4959584;28;20054;-70
2022/09/27 11:15:04;;;;;;;3.50;0.90;;;14.10;99.90;;;;;;4977279;28;20082;-71
2022/09/27 11:17:50;;;;;;;1.58;0.70;;;13.80;99.90;;;;;;4961000;28;20049;-72
2022/09/27 11:20:21;;;;;;;1.80;0.85;;;13.40;99.90;;;;;;4977012;28;20476;-72
2022/09/27 11:22:47;;;;;;;1.15;0.60;;;13.10;99.90;;;;;;4959798;28;20459;-71
2022/09/27 11:25:19;;;;;;;1.38;0.60;;;13.00;99.90;;;;;;4977088;28;20058;-70
2022/09/27 11:28:16;;;;;;;1.50;0.60;;;12.90;99.90;;;;;;4977000;28;20105;-71
2022/09/27 11:30:50;;;;;;;0.98;0.60;;;12.80;99.90;;;;;;4976966;28;20051;-71
2022/09/27 11:33:48;;;;;;;1.83;0.70;;;12.70;99.90;;;;;;4977134;28;20054;-70
2022/09/27 11:36:22;;;;;;;1.95;0.60;;;12.50;99.90;;;;;;4982499;28;20053;-71
2022/09/27 11:39:08;;;;;;;2.15;0.90;;;12.40;99.90;;;;;;4996362;28;20051;-71
2022/09/27 11:42:00;;;;;;;1.70;0.88;;;12.20;99.90;;;;;;4996606;28;20046;-70
2022/09/27 11:44:57;;;;;;;2.15;0.80;;;12.10;99.90;;;;;;4996139;28;20050;-71
2022/09/27 11:48:02;;;;;;;3.20;0.98;;;12.10;99.90;;;;;;4996340;28;20047;-72
2022/09/27 11:50:49;;;;;;;1.35;0.70;;;12.10;99.90;;;;;;4995960;28;20058;-69
2022/09/27 11:53:27;;;;;;;1.75;0.88;;;12.20;99.90;;;;;;4995918;28;20057;-70
2022/09/27 11:56:14;;;;;;;4.88;0.80;;;12.40;99.90;;;;;;4996120;28;20047;-70
2022/09/27 11:59:01;;;;;;;2.15;0.90;;;12.70;99.90;;;;;;4978788;28;20454;-68
2022/09/27 12:02:05;;;;;;;2.10;0.80;;;12.90;99.90;;;;;;4995638;28;20455;-69
2022/09/27 12:04:43;;;;;;;2.00;1.30;;;13.20;99.90;;;;;;4974696;28;20058;-70
2022/09/27 12:07:26;;;;;;;3.10;0.80;;;13.60;99.90;;;;;;4978039;28;20055;-70
2022/09/27 12:10:02;;;;;;;2.08;0.88;;;13.80;99.90;;;;;;4976166;28;20456;-70
2022/09/27 12:12:32;;;;;;;1.25;0.65;;;14.10;99.90;;;;;;4976502;28;20144;-70
2022/09/27 12:15:05;;;;;;;2.70;0.93;;;14.20;99.90;;;;;;4975818;28;20051;-69
2022/09/27 12:17:38;;;;;;;2.40;0.80;;;14.20;99.90;;;;;;4976326;28;20042;-68
2022/09/27 12:20:13;;;;;;;2.70;0.85;;;14.30;99.90;;;;;;4976777;28;20464;-70
2022/09/27 12:23:20;;;;;;;4.75;0.90;;;14.40;99.90;;;;;;4976168;28;20066;-69
2022/09/27 12:25:51;;;;;;;2.10;0.70;;;14.40;99.90;;;;;;4898656;28;20055;-69
2022/09/27 12:28:51;;;;;;;7.85;2.15;;;14.50;99.90;;;;;;4975916;28;20050;-70
2022/09/27 12:31:24;;;;;;;5.85;2.22;;;14.20;99.90;;;;;;4976036;28;20104;-70
2022/09/27 12:34:01;;;;;;;4.67;1.57;;;14.10;99.90;;;;;;4976347;28;20062;-72
2022/09/27 12:36:36;;;;;;;4.35;1.17;;;14.00;99.90;;;;;;4987797;28;20470;-69
2022/09/27 12:39:21;;;;;;;3.08;1.40;;;13.90;99.90;;;;;;4995622;28;20038;-71
2022/09/27 12:42:00;;;;;;;6.57;2.25;;;13.80;99.90;;;;;;4995694;28;20112;-70
2022/09/27 12:44:27;;;;;;;6.03;2.40;;;13.70;99.90;;;;;;4995432;28;20111;-71
2022/09/27 12:46:58;;;;;;;4.63;2.25;;;13.60;99.90;;;;;;4994763;28;20090;-69
2022/09/27 12:49:43;;;;;;;3.83;1.77;;;13.40;99.90;;;;;;4994981;28;20466;-71
2022/09/27 12:52:13;;;;;;;4.13;1.73;;;13.30;99.90;;;;;;4978305;28;20160;-72
2022/09/27 12:54:44;;;;;;;3.08;1.08;;;13.20;99.90;;;;;;4978042;28;20054;-70
2022/09/27 12:57:36;;;;;;;3.20;1.50;;;13.00;99.90;;;;;;4995331;28;20046;-69
2022/09/27 13:00:24;;;;;;;2.58;0.95;;;12.80;99.90;;;;;;4990727;28;20069;-70
2022/09/27 13:03:11;;;;;;;5.13;1.10;;;12.80;99.90;;;;;;4994863;28;20043;-70
2022/09/27 13:06:07;;;;;;;3.38;1.00;;;12.70;99.90;;;;;;4995613;28;20050;-70
2022/09/27 13:08:33;;;;;;;3.88;1.30;;;12.60;99.90;;;;;;4954789;28;20054;-71
2022/09/27 13:11:27;;;;;;;5.28;1.48;;;12.60;99.90;;;;;;4995331;28;20352;-69
2022/09/27 13:13:58;;;;;;;2.65;1.10;;;12.50;99.90;;;;;;4994880;28;20473;-71
2022/09/27 13:16:24;;;;;;;3.25;0.80;;;12.60;99.90;;;;;;4993534;28;20034;-69
2022/09/27 13:18:58;;;;;;;4.85;0.93;;;12.70;99.90;;;;;;4994775;28;20057;-69
2022/09/27 13:21:45;;;;;;;3.63;1.05;;;13.00;99.90;;;;;;4995041;28;20058;-71
2022/09/27 13:24:38;;;;;;;3.83;0.90;;;13.30;99.90;;;;;;4994971;28;20444;-71
2022/09/27 13:27:24;;;;;;;2.33;0.98;;;13.50;99.90;;;;;;4995008;28;20414;-71